Terminal Aerodrome Forecast
Issued by NWS Paducah, KY

Home | Current Version | Previous Version | Text Only | Print | Product List | Glossary Off
Versions: 1 2 3 4 5 6 7 8 9 10 11 12 13 14 15 16 17 18 19 20 21

161
FTUS43 KPAH 280049 AAA
TAFPAH
TAF AMD
KPAH 280049Z 2801/2824 VRB10KT P6SM TS SCT035CB BKN070
      TEMPO 2801/2803 1 1/2SM +TSRA BR BKN035CB
     FM280300 VRB03KT P6SM SCT050 BKN100
     FM280700 VRB03KT 4SM BR VCTS SCT020 OVC050CB
      TEMPO 2809/2813 1SM TSRA BR OVC012CB
     FM281600 27003KT P6SM SCT040 BKN100=

USA.gov is the U.S. government's official web portal to all federal, state and local government web resources and services.